Etusivu
METAR-TAF:

METAR-TAF

Lentoasemat :

Dakar, Senegal

Leveyspiiri: 14-44N, Pituuspiiri: 017-30W, korkeus merenpinnasta: 27 m

Tämänhetkinen sää

Tämä raportti tehtiin 27 minuuttia sitten, kello 05.00 UTC
Tuuli 10 kn pohjoisesta
Lämpötila 23°C
Kosteus 89%
Ilmanpaine 1013 hPa
Näkyvyys 10 km tai enemmän
ei pilviä alle 1500 m:ssä eikä cumulonimbus-pilviä

METAR: GOOY 030500Z 36010KT CAVOK 23/21 Q1013

Aika: 05:27 (05:27 UTC)

Sääennuste

Tämä raportti tehtiin 5 tuntia ja 57 minuuttia sitten, kello 23.30 UTC
Ennuste voimassa 03. päivästä klo 00 UTC - 04. päivään klo 06 UTC
Tuuli 12 kn pohjoisesta
Näkyvyys 10 km tai enemmän
Hajanaisia pilviä 1100 ft:n korkeudessa

TAF: GOOY 022330Z 0300/0406 36012KT 9999 SCT011

Säähavainnot ja -ennusteet yli 4000 lentoasemalta (METAR- ja TAF-raportit).

Käytössä olevat sääasemat on merkitty karttaan keltaisilla ja punaisilla pisteillä.

Aseta hiiri pisteen päälle nähdäksesi sääaseman nimen.

Klikkaa sitten nähdäksesi säähavainnot ja -ennusteet.

Kartan vaihtaminen: klikkaa mustalla rastilla varustettuja vihreitä pisteitä, niin voit zoomata sisään; viivalla varustettua vihreää pistettä, niin voit zoomata ulos tai vihreitä nuolia, niin pääset viereisille kartoille.


METAR-TAF: